Time;durP1;ratioP1;P1;durP2;ratioP2;P2;SDS_P1;SDS_P2;PMS_P1;PMS_P2;Temp;Humidity;BMP_temperature;BMP_pressure;BME280_temperature;BME280_humidity;BME280_pressure;Samples;Min_cycle;Max_cycle;Signal;HPM_P1;HPM_P2
2023/12/24 00:00:42;;;;;;;9.90;4.70;;;;;;;0.74;83.10;98261.91;218858;1254;139822;-63
2023/12/24 00:06:07;;;;;;;4.90;2.40;;;;;;;0.71;82.94;98266.44;217580;1256;221016;-63
2023/12/24 00:11:12;;;;;;;6.00;2.90;;;;;;;0.71;83.27;98275.52;219358;1253;139749;-64
2023/12/24 00:16:18;;;;;;;6.70;2.50;;;;;;;0.73;83.22;98275.75;218211;1253;139616;-63
2023/12/24 00:21:23;;;;;;;14.10;3.40;;;;;;;0.76;83.25;98279.46;220450;1254;140677;-64
2023/12/24 00:26:28;;;;;;;12.00;3.70;;;;;;;0.79;83.19;98289.02;219291;1254;140225;-65
2023/12/24 00:31:32;;;;;;;10.30;3.50;;;;;;;0.83;83.11;98298.33;219319;1254;140034;-65
2023/12/24 00:36:36;;;;;;;8.90;3.80;;;;;;;0.88;83.04;98308.61;218929;1254;141068;-63
2023/12/24 00:41:40;;;;;;;6.70;3.60;;;;;;;0.91;82.88;98318.27;220347;1258;140419;-63
2023/12/24 00:46:44;;;;;;;3.20;2.60;;;;;;;0.95;83.00;98323.49;220196;1254;140027;-67
2023/12/24 00:51:50;;;;;;;12.60;3.20;;;;;;;0.98;82.89;98326.63;219029;1257;140669;-66
2023/12/24 00:56:54;;;;;;;11.60;3.40;;;;;;;1.01;82.81;98334.70;218537;1254;139918;-66
2023/12/24 01:01:58;;;;;;;3.40;2.90;;;;;;;1.04;83.07;98348.10;218081;1258;140920;-65
2023/12/24 01:07:03;;;;;;;6.80;3.40;;;;;;;1.06;83.06;98362.66;217772;1258;139484;-65
2023/12/24 01:12:07;;;;;;;7.00;2.90;;;;;;;1.02;82.98;98372.23;219395;1254;141384;-66
2023/12/24 01:17:13;;;;;;;12.90;3.60;;;;;;;1.02;82.89;98377.48;217633;1254;139658;-65
2023/12/24 01:22:17;;;;;;;7.40;3.40;;;;;;;1.02;83.03;98383.23;218405;1256;140094;-65
2023/12/24 01:27:24;;;;;;;6.90;3.90;;;;;;;1.02;83.29;98381.89;217698;1253;139536;-63
2023/12/24 01:32:30;;;;;;;8.60;5.10;;;;;;;1.02;83.13;98381.56;217413;1253;140041;-62
2023/12/24 01:37:35;;;;;;;6.80;5.00;;;;;;;1.03;83.24;98383.74;218403;1256;140769;-64
2023/12/24 01:42:43;;;;;;;6.80;4.00;;;;;;;1.04;83.26;98382.77;217724;1256;140394;-63
2023/12/24 01:47:49;;;;;;;7.40;3.20;;;;;;;1.05;83.18;98384.27;217974;1254;139694;-63
2023/12/24 01:52:57;;;;;;;12.00;3.90;;;;;;;1.04;83.25;98381.32;218553;1254;139851;-63
2023/12/24 01:58:03;;;;;;;5.90;3.60;;;;;;;1.03;83.19;98387.54;217718;1254;139894;-63
2023/12/24 02:03:08;;;;;;;5.90;3.90;;;;;;;1.01;83.26;98398.97;219302;1254;139820;-63
2023/12/24 02:08:21;;;;;;;3.80;3.00;;;;;;;0.99;83.22;98396.52;217519;1253;140064;-62
2023/12/24 02:13:27;;;;;;;5.20;2.20;;;;;;;0.98;83.34;98401.39;217773;1254;140196;-62
2023/12/24 02:18:32;;;;;;;8.60;3.40;;;;;;;0.96;83.27;98407.16;219342;1253;140252;-62
2023/12/24 02:23:38;;;;;;;3.60;2.90;;;;;;;0.94;83.11;98417.02;218724;1254;139674;-62
2023/12/24 02:28:48;;;;;;;13.50;6.90;;;;;;;0.88;83.10;98421.58;218592;1253;140623;-63
2023/12/24 02:33:54;;;;;;;9.90;4.30;;;;;;;0.85;83.24;98425.58;220321;1253;141773;-63
2023/12/24 02:38:58;;;;;;;9.30;4.30;;;;;;;0.88;83.25;98426.66;220334;1254;141652;-65
2023/12/24 02:44:02;;;;;;;6.00;3.30;;;;;;;0.89;83.10;98425.81;220350;1253;140304;-65
2023/12/24 02:49:05;;;;;;;4.70;2.70;;;;;;;0.89;83.02;98424.48;220396;1254;140089;-66
2023/12/24 02:54:10;;;;;;;6.10;2.60;;;;;;;0.91;83.08;98424.84;218970;1254;140410;-65
2023/12/24 02:59:13;;;;;;;4.50;2.80;;;;;;;0.89;83.11;98425.73;219270;1254;140363;-63
2023/12/24 03:04:18;;;;;;;4.10;2.60;;;;;;;0.91;83.23;98425.36;218815;1254;140606;-63
2023/12/24 03:09:23;;;;;;;5.00;3.50;;;;;;;0.91;83.52;98424.91;218820;1253;140129;-64
2023/12/24 03:14:27;;;;;;;7.00;2.40;;;;;;;0.95;83.59;98433.11;219370;1256;139815;-62
2023/12/24 03:19:35;;;;;;;7.20;3.60;;;;;;;1.00;83.61;98434.73;219480;1254;140999;-64
2023/12/24 03:24:40;;;;;;;7.80;3.90;;;;;;;1.03;83.69;98437.48;219491;1253;140138;-65
2023/12/24 03:29:45;;;;;;;12.80;4.50;;;;;;;1.03;83.73;98432.23;218988;1254;140423;-64
2023/12/24 03:34:51;;;;;;;2.40;1.60;;;;;;;1.05;83.90;98443.58;217929;1254;141787;-64
2023/12/24 03:39:56;;;;;;;6.40;3.50;;;;;;;1.03;83.84;98451.41;218292;1254;139578;-65
2023/12/24 03:45:01;;;;;;;4.60;2.50;;;;;;;1.01;83.89;98460.16;218303;1253;422473;-63
2023/12/24 03:50:06;;;;;;;5.40;4.10;;;;;;;0.99;84.17;98457.88;217827;1256;139640;-65
2023/12/24 03:55:11;;;;;;;8.60;4.20;;;;;;;0.98;84.03;98460.41;217740;1254;140323;-61
2023/12/24 04:00:16;;;;;;;9.70;3.40;;;;;;;0.97;84.28;98460.21;218589;1254;139446;-61
2023/12/24 04:05:21;;;;;;;5.80;2.90;;;;;;;0.95;84.23;98462.30;219076;1254;139681;-62
2023/12/24 04:10:26;;;;;;;5.00;3.50;;;;;;;0.93;84.49;98455.77;218594;1254;141416;-61
2023/12/24 04:15:31;;;;;;;5.90;3.50;;;;;;;0.94;84.52;98453.71;219539;1254;141277;-61
2023/12/24 04:20:38;;;;;;;6.30;3.70;;;;;;;0.96;84.44;98448.63;219340;1254;139848;-63
2023/12/24 04:25:44;;;;;;;10.70;3.80;;;;;;;0.99;84.73;98453.55;218074;1254;140593;-63
2023/12/24 04:30:50;;;;;;;7.90;3.30;;;;;;;1.03;84.54;98453.51;219361;1256;140579;-65
2023/12/24 04:35:54;;;;;;;8.30;4.00;;;;;;;1.00;84.46;98453.46;219228;1254;140139;-65
2023/12/24 04:40:59;;;;;;;10.20;5.10;;;;;;;1.00;84.57;98458.02;218019;1256;140330;-65
2023/12/24 04:46:04;;;;;;;6.20;3.50;;;;;;;0.99;84.69;98453.39;219546;1253;139730;-65
2023/12/24 04:51:11;;;;;;;9.00;4.50;;;;;;;0.98;84.89;98459.20;217752;1256;140480;-63
2023/12/24 04:56:20;;;;;;;6.80;4.90;;;;;;;0.96;84.94;98467.59;219028;1254;141306;-63
2023/12/24 05:01:26;;;;;;;7.20;3.80;;;;;;;0.95;84.99;98474.73;218419;1254;141355;-64
2023/12/24 05:06:30;;;;;;;7.00;4.90;;;;;;;0.97;85.11;98474.54;218646;1254;139960;-63
2023/12/24 05:11:35;;;;;;;9.90;5.00;;;;;;;0.98;85.32;98474.70;217524;1257;139357;-63
2023/12/24 05:16:39;;;;;;;14.50;5.90;;;;;;;1.00;85.51;98481.52;219019;1254;139615;-64
2023/12/24 05:21:43;;;;;;;26.80;6.60;;;;;;;1.00;85.53;98482.89;217740;1256;139564;-63
2023/12/24 05:26:48;;;;;;;8.90;5.60;;;;;;;1.02;85.63;98487.50;217724;1257;141014;-63
2023/12/24 05:31:54;;;;;;;8.40;4.60;;;;;;;1.04;85.77;98495.81;217699;1254;140535;-64
2023/12/24 05:37:00;;;;;;;8.40;6.40;;;;;;;1.06;85.80;98498.40;218619;1254;139414;-64
2023/12/24 05:42:06;;;;;;;16.00;7.90;;;;;;;1.06;85.92;98501.14;218090;1254;139967;-65
2023/12/24 05:47:11;;;;;;;10.40;6.60;;;;;;;1.08;86.03;98498.48;217821;1255;140333;-62
2023/12/24 05:52:16;;;;;;;11.70;8.10;;;;;;;1.07;85.75;98494.77;217694;1254;139785;-62
2023/12/24 05:57:21;;;;;;;9.60;7.20;;;;;;;1.07;86.09;98491.92;218847;1254;140650;-63
2023/12/24 06:02:26;;;;;;;9.00;6.70;;;;;;;1.06;86.00;98497.19;218120;1256;140140;-63
2023/12/24 06:07:31;;;;;;;8.00;6.20;;;;;;;1.04;86.12;98503.52;218775;1254;140000;-62
2023/12/24 06:12:36;;;;;;;7.00;5.90;;;;;;;1.04;86.32;98501.42;219526;1255;140191;-63
2023/12/24 06:17:40;;;;;;;6.90;6.20;;;;;;;1.04;86.17;98509.70;218001;1255;139690;-62
2023/12/24 06:22:45;;;;;;;7.90;6.40;;;;;;;1.06;86.43;98523.23;219637;1254;139855;-63
2023/12/24 06:27:49;;;;;;;8.00;5.90;;;;;;;1.07;86.37;98522.98;218463;1257;140055;-63
2023/12/24 06:32:53;;;;;;;6.10;5.20;;;;;;;1.06;86.58;98523.75;220719;1255;140405;-65
2023/12/24 06:37:58;;;;;;;7.50;4.80;;;;;;;1.07;86.42;98519.47;220646;1254;139896;-65
2023/12/24 06:43:02;;;;;;;3.90;3.50;;;;;;;1.08;86.56;98516.56;217994;1254;139753;-64
2023/12/24 06:48:07;;;;;;;5.90;4.80;;;;;;;1.07;86.32;98517.45;220460;1254;140008;-64
2023/12/24 06:53:13;;;;;;;4.20;3.90;;;;;;;1.07;86.44;98517.37;218380;1257;140429;-62
2023/12/24 06:58:18;;;;;;;6.30;4.90;;;;;;;1.07;86.48;98520.48;217732;1257;140459;-62
2023/12/24 07:03:23;;;;;;;4.80;4.30;;;;;;;1.03;86.49;98530.41;219617;1254;140537;-62
2023/12/24 07:08:29;;;;;;;7.90;4.60;;;;;;;1.01;86.74;98530.85;217648;1257;140817;-63
2023/12/24 07:13:35;;;;;;;4.40;4.00;;;;;;;1.01;86.89;98539.02;218634;1256;140902;-60
2023/12/24 07:18:40;;;;;;;4.90;4.50;;;;;;;1.02;86.82;98543.89;219065;1257;140515;-62
2023/12/24 07:23:45;;;;;;;5.50;5.00;;;;;;;1.01;86.77;98548.02;218096;1254;140405;-64
2023/12/24 07:28:49;;;;;;;3.30;3.00;;;;;;;0.99;86.84;98554.30;219617;1254;141019;-62
2023/12/24 07:33:54;;;;;;;6.30;3.10;;;;;;;1.01;86.92;98553.42;218516;1254;139791;-63
2023/12/24 07:38:59;;;;;;;2.80;2.30;;;;;;;1.01;86.89;98556.54;217865;1257;139557;-62
2023/12/24 07:44:04;;;;;;;4.70;3.20;;;;;;;0.99;86.85;98560.52;218339;1254;140561;-64
2023/12/24 07:49:09;;;;;;;2.90;2.60;;;;;;;0.99;87.04;98563.95;218238;1254;140404;-63
2023/12/24 07:54:14;;;;;;;5.00;3.00;;;;;;;1.01;87.06;98557.79;218346;1254;139139;-62
2023/12/24 07:59:19;;;;;;;3.30;3.00;;;;;;;1.00;87.13;98553.10;218818;1256;139689;-62
2023/12/24 08:04:23;;;;;;;3.20;2.40;;;;;;;0.99;87.22;98557.46;218931;1254;139910;-63
2023/12/24 08:09:28;;;;;;;3.10;2.60;;;;;;;0.98;87.25;98563.92;218239;1254;139470;-63
2023/12/24 08:14:33;;;;;;;7.90;5.30;;;;;;;0.93;87.01;98569.16;219393;1253;141333;-62
2023/12/24 08:19:37;;;;;;;4.70;4.20;;;;;;;0.94;87.35;98565.57;217778;1256;139753;-62
2023/12/24 08:24:41;;;;;;;4.10;3.80;;;;;;;0.98;87.44;98570.61;219494;1254;139597;-62
2023/12/24 08:29:45;;;;;;;2.60;2.40;;;;;;;0.99;87.42;98567.10;219972;1255;139681;-62
2023/12/24 08:34:50;;;;;;;3.90;3.30;;;;;;;1.00;87.58;98570.81;220175;1254;140279;-63
2023/12/24 08:39:55;;;;;;;5.00;3.70;;;;;;;1.05;87.35;98570.98;219150;1253;139700;-62
2023/12/24 08:45:00;;;;;;;5.60;4.40;;;;;;;1.07;87.46;98568.81;218169;1256;139530;-61
2023/12/24 08:50:05;;;;;;;4.10;3.20;;;;;;;1.08;87.47;98573.70;219455;1254;140336;-63
2023/12/24 08:55:09;;;;;;;3.40;3.00;;;;;;;1.09;87.36;98575.34;218289;1254;139897;-64
2023/12/24 09:00:19;;;;;;;4.40;2.80;;;;;;;1.05;87.60;98580.02;219351;1256;140013;-63
2023/12/24 09:05:23;;;;;;;3.20;2.30;;;;;;;1.05;87.53;98576.52;218319;1253;140017;-62
2023/12/24 09:10:28;;;;;;;2.30;2.10;;;;;;;1.03;87.54;98568.80;218535;1254;139898;-64
2023/12/24 09:15:32;;;;;;;3.10;2.50;;;;;;;1.04;87.74;98566.17;218803;1254;139971;-63
2023/12/24 09:20:36;;;;;;;3.90;2.10;;;;;;;1.10;87.88;98554.91;218582;1254;141639;-64
2023/12/24 09:25:44;;;;;;;2.70;2.30;;;;;;;1.16;87.78;98565.78;218687;1254;140075;-63
2023/12/24 09:30:50;;;;;;;4.70;2.20;;;;;;;1.21;87.99;98556.36;218784;1253;139497;-66
2023/12/24 09:35:55;;;;;;;2.70;2.20;;;;;;;1.26;87.99;98541.29;218565;1254;139621;-66
2023/12/24 09:41:00;;;;;;;4.70;2.80;;;;;;;1.33;87.74;98534.61;218251;1254;140289;-64
2023/12/24 09:46:05;;;;;;;2.80;2.60;;;;;;;1.36;87.65;98530.37;219340;1252;140575;-67
2023/12/24 09:51:10;;;;;;;6.10;3.80;;;;;;;1.37;87.73;98524.80;218813;1254;140324;-65
2023/12/24 09:56:15;;;;;;;5.80;2.90;;;;;;;1.40;87.80;98520.91;218098;1254;139289;-62
2023/12/24 10:01:20;;;;;;;3.90;2.90;;;;;;;1.43;87.80;98519.09;219379;1253;140754;-66
2023/12/24 10:06:25;;;;;;;2.70;2.40;;;;;;;1.46;87.87;98520.17;217829;1257;141668;-65
2023/12/24 10:11:35;;;;;;;3.30;2.90;;;;;;;1.46;87.83;98516.27;218220;1254;140705;-66
2023/12/24 10:16:47;;;;;;;3.50;3.20;;;;;;;1.44;87.80;98507.27;219183;1253;139281;-66
2023/12/24 10:22:06;;;;;;;17.30;7.80;;;;;;;1.36;87.68;98507.67;218213;1254;139819;-67
2023/12/24 10:27:13;;;;;;;10.70;6.30;;;;;;;1.36;88.02;98500.77;218283;1254;139569;-67
2023/12/24 10:32:28;;;;;;;4.40;3.10;;;;;;;1.36;87.82;98488.00;220688;1253;142269;-66
2023/12/24 10:37:33;;;;;;;4.30;3.80;;;;;;;1.38;87.92;98474.46;219532;1253;140300;-67
2023/12/24 10:42:39;;;;;;;8.70;4.70;;;;;;;1.44;88.00;98459.46;219527;1254;140530;-64
2023/12/24 10:47:45;;;;;;;7.80;5.30;;;;;;;1.50;88.02;98450.60;219203;1254;140262;-65
2023/12/24 10:52:50;;;;;;;6.90;5.70;;;;;;;1.54;88.04;98444.75;218133;1254;140442;-67
2023/12/24 10:58:03;;;;;;;6.00;5.40;;;;;;;1.62;87.98;98436.63;219269;1254;140013;-65
2023/12/24 11:03:08;;;;;;;10.10;6.10;;;;;;;1.63;87.85;98430.16;218719;1254;139472;-64
2023/12/24 11:08:22;;;;;;;8.40;4.70;;;;;;;1.63;87.75;98429.72;218803;1257;140148;-69
2023/12/24 11:13:36;;;;;;;8.90;6.30;;;;;;;1.61;87.99;98425.65;218194;1254;139522;-68
2023/12/24 11:18:49;;;;;;;5.80;4.70;;;;;;;1.58;87.74;98419.40;218472;1253;141441;-68
2023/12/24 11:24:12;;;;;;;6.70;4.50;;;;;;;1.54;87.83;98402.93;218364;1253;141454;-67
2023/12/24 11:29:48;;;;;;;7.00;4.80;;;;;;;1.50;87.92;98388.42;217943;1254;139567;-64
2023/12/24 11:34:58;;;;;;;5.40;4.10;;;;;;;1.45;87.55;98384.89;218011;1254;140555;-64
2023/12/24 11:40:14;;;;;;;6.70;4.70;;;;;;;1.48;88.07;98380.03;218274;1254;139645;-64
2023/12/24 11:45:29;;;;;;;3.60;3.30;;;;;;;1.49;88.20;98365.65;218575;1253;141735;-64
2023/12/24 11:50:34;;;;;;;4.90;3.40;;;;;;;1.51;88.09;98357.48;218644;1256;139675;-67
2023/12/24 11:55:40;;;;;;;5.30;3.50;;;;;;;1.53;88.00;98346.86;218172;1254;140228;-66
2023/12/24 12:00:44;;;;;;;3.60;3.20;;;;;;;1.46;87.85;98341.02;218188;1254;139683;-66
2023/12/24 12:05:49;;;;;;;7.10;3.40;;;;;;;1.35;87.82;98329.99;219358;1253;139409;-66
2023/12/24 12:10:55;;;;;;;8.90;4.60;;;;;;;1.27;88.08;98326.59;219166;1254;140140;-66
2023/12/24 12:16:00;;;;;;;9.50;7.00;;;;;;;1.21;88.28;98313.55;219957;1253;140076;-67
2023/12/24 12:21:04;;;;;;;8.50;6.20;;;;;;;1.19;88.22;98298.71;218496;1253;139585;-66
2023/12/24 12:26:09;;;;;;;7.70;5.50;;;;;;;1.14;88.41;98292.23;220073;1253;140254;-67
2023/12/24 12:31:13;;;;;;;4.10;3.50;;;;;;;1.14;88.38;98283.23;219906;1254;140467;-67
2023/12/24 12:36:18;;;;;;;8.30;4.70;;;;;;;1.14;88.51;98275.79;220066;1255;139346;-66
2023/12/24 12:41:23;;;;;;;4.40;3.60;;;;;;;1.20;88.92;98271.08;219170;1254;140106;-68
2023/12/24 12:46:29;;;;;;;4.60;3.50;;;;;;;1.21;88.86;98250.48;217895;1254;139841;-65
2023/12/24 12:51:33;;;;;;;4.80;2.90;;;;;;;1.20;88.70;98248.23;218590;1257;139857;-66
2023/12/24 12:56:51;;;;;;;4.20;3.10;;;;;;;1.17;89.00;98251.71;218864;1255;140032;-66
2023/12/24 13:01:55;;;;;;;;;;;;;;;1.16;89.13;98239.05;218853;1254;141031;-68
2023/12/24 13:07:08;;;;;;;3.00;2.10;;;;;;;1.10;89.24;98238.19;218638;1254;127218;-67
2023/12/24 13:12:12;;;;;;;4.80;3.40;;;;;;;1.08;89.59;98242.19;218132;1254;139814;-67
2023/12/24 13:17:24;;;;;;;5.40;4.00;;;;;;;1.06;89.71;98244.17;218375;1254;141111;-65
2023/12/24 13:22:30;;;;;;;5.10;4.60;;;;;;;1.05;89.61;98235.62;218394;1254;141761;-67
2023/12/24 13:27:34;;;;;;;4.30;3.90;;;;;;;1.01;89.75;98218.44;218034;1254;139830;-66
2023/12/24 13:32:39;;;;;;;5.40;3.90;;;;;;;1.02;90.20;98213.75;218039;1253;140692;-66
2023/12/24 13:37:46;;;;;;;6.00;4.00;;;;;;;1.05;90.29;98209.23;217986;1253;139525;-68
2023/12/24 13:42:55;;;;;;;4.50;3.30;;;;;;;1.06;90.47;98206.27;217871;1253;140652;-67
2023/12/24 13:48:03;;;;;;;7.80;5.20;;;;;;;1.08;90.75;98200.09;217798;1253;140439;-67
2023/12/24 13:53:08;;;;;;;5.60;4.70;;;;;;;1.10;90.53;98189.09;218145;1254;139589;-66
2023/12/24 13:58:32;;;;;;;8.70;5.90;;;;;;;1.02;90.71;98174.44;219680;1253;139848;-64
2023/12/24 14:03:36;;;;;;;7.20;5.30;;;;;;;0.96;91.06;98169.58;219675;1253;140736;-68
2023/12/24 14:08:41;;;;;;;12.70;7.80;;;;;;;0.99;91.23;98181.35;219994;1253;140109;-66
2023/12/24 14:13:47;;;;;;;7.70;5.50;;;;;;;1.05;91.24;98177.33;219648;1252;140368;-66
2023/12/24 14:18:54;;;;;;;9.80;7.00;;;;;;;1.06;91.22;98154.88;218919;1253;140081;-67
2023/12/24 14:24:01;;;;;;;7.50;6.50;;;;;;;1.05;91.36;98148.10;219127;1253;139356;-67
2023/12/24 14:29:07;;;;;;;8.70;5.40;;;;;;;1.10;91.79;98142.95;219671;1253;140303;-67
2023/12/24 14:34:11;;;;;;;8.90;6.70;;;;;;;1.09;91.68;98144.00;219208;1253;140445;-65
2023/12/24 14:39:16;;;;;;;9.10;6.20;;;;;;;1.13;91.77;98144.38;219403;1253;140463;-67
2023/12/24 14:44:21;;;;;;;12.30;8.80;;;;;;;1.17;92.07;98137.81;218037;1253;139615;-66
2023/12/24 14:49:29;;;;;;;9.00;6.60;;;;;;;1.24;92.29;98144.84;218390;1256;140546;-66
2023/12/24 14:54:35;;;;;;;6.10;4.50;;;;;;;1.25;92.21;98139.18;218090;1253;139845;-66
2023/12/24 14:59:39;;;;;;;7.30;6.50;;;;;;;1.27;92.61;98142.40;218400;1253;139514;-65
2023/12/24 15:04:44;;;;;;;7.10;5.60;;;;;;;1.30;92.74;98138.94;218867;1254;140776;-66
2023/12/24 15:09:50;;;;;;;11.00;5.50;;;;;;;1.36;93.04;98127.68;219487;1253;140748;-66
2023/12/24 15:14:55;;;;;;;8.80;5.10;;;;;;;1.43;93.56;98117.09;218421;1254;140261;-66
2023/12/24 15:19:59;;;;;;;13.00;6.50;;;;;;;1.49;93.47;98108.19;218059;1254;140195;-66
2023/12/24 15:25:03;;;;;;;11.70;6.50;;;;;;;1.54;93.79;98096.68;219148;1254;140629;-69
2023/12/24 15:30:08;;;;;;;9.40;6.40;;;;;;;1.61;93.94;98094.80;218611;1253;140319;-67
2023/12/24 15:35:13;;;;;;;9.60;6.20;;;;;;;1.69;94.12;98090.77;219231;1254;140031;-66
2023/12/24 15:40:18;;;;;;;9.30;5.80;;;;;;;1.78;94.40;98086.36;217777;1254;468058;-67
2023/12/24 15:45:24;;;;;;;12.60;8.40;;;;;;;1.88;94.96;98100.88;218902;1253;139769;-65
2023/12/24 15:50:28;;;;;;;9.50;6.60;;;;;;;1.96;95.03;98098.80;217915;1256;225107;-65
2023/12/24 15:55:35;;;;;;;14.00;5.70;;;;;;;2.02;94.96;98090.12;218518;1253;139922;-65
2023/12/24 16:00:41;;;;;;;12.80;6.70;;;;;;;2.11;95.48;98085.30;219001;1254;139817;-66
2023/12/24 16:05:46;;;;;;;11.70;8.30;;;;;;;2.19;95.72;98060.75;219932;1253;140752;-68
2023/12/24 16:10:51;;;;;;;12.70;8.20;;;;;;;2.29;95.91;98054.05;219054;1253;139689;-68
2023/12/24 16:15:56;;;;;;;11.00;7.40;;;;;;;2.39;95.84;98058.52;219470;1253;140570;-69
2023/12/24 16:20:59;;;;;;;12.00;9.00;;;;;;;2.50;96.15;98054.20;219266;1253;139622;-67
2023/12/24 16:26:04;;;;;;;11.30;7.80;;;;;;;2.59;96.24;98038.66;219682;1254;140207;-68
2023/12/24 16:31:09;;;;;;;8.80;6.10;;;;;;;2.68;96.51;98025.45;220603;1253;139940;-69
2023/12/24 16:36:26;;;;;;;10.90;7.60;;;;;;;2.80;96.60;98019.27;219414;1254;151116;-68
2023/12/24 16:41:37;;;;;;;14.10;9.40;;;;;;;2.90;96.67;98015.91;219713;1253;140701;-68
2023/12/24 16:46:42;;;;;;;10.40;8.10;;;;;;;3.00;96.98;98026.48;219646;1254;139734;-67
2023/12/24 16:51:47;;;;;;;11.90;8.10;;;;;;;3.10;96.91;98030.16;218958;1253;139816;-67
2023/12/24 16:56:51;;;;;;;11.00;8.30;;;;;;;3.20;97.33;98032.76;219404;1256;139846;-67
2023/12/24 17:01:56;;;;;;;8.90;6.90;;;;;;;3.28;97.58;98030.06;219626;1254;140553;-66
2023/12/24 17:07:01;;;;;;;11.60;9.00;;;;;;;3.38;97.70;98010.47;218621;1254;140219;-66
2023/12/24 17:12:07;;;;;;;10.60;7.80;;;;;;;3.49;97.80;97997.58;219207;1253;140276;-64
2023/12/24 17:17:11;;;;;;;11.40;7.20;;;;;;;3.59;98.02;97996.39;218736;1253;140990;-66
2023/12/24 17:22:15;;;;;;;6.80;5.80;;;;;;;3.68;98.32;97991.86;218482;1254;140243;-66
2023/12/24 17:27:20;;;;;;;11.50;7.10;;;;;;;3.78;98.45;97981.98;218994;1256;140303;-66
2023/12/24 17:32:25;;;;;;;11.50;8.20;;;;;;;3.88;98.83;97982.15;218545;1253;139840;-67
2023/12/24 17:37:32;;;;;;;7.70;5.60;;;;;;;3.98;99.16;97975.23;218346;1254;140495;-67
2023/12/24 17:42:39;;;;;;;8.10;5.60;;;;;;;4.10;99.30;97969.80;218889;1256;140382;-65
2023/12/24 17:47:43;;;;;;;;;;;;;;;4.22;99.67;97962.07;218519;1253;139798;-66
2023/12/24 17:52:48;;;;;;;4.70;4.00;;;;;;;4.32;99.89;97966.86;219583;1253;126151;-65
2023/12/24 17:57:52;;;;;;;6.80;5.20;;;;;;;4.44;99.89;97966.59;218405;1254;139556;-66
2023/12/24 18:02:56;;;;;;;7.50;5.20;;;;;;;4.56;100.00;97955.56;219391;1253;140192;-65
2023/12/24 18:08:01;;;;;;;9.10;6.40;;;;;;;4.67;100.00;97958.94;220343;1253;142069;-65
2023/12/24 18:13:06;;;;;;;7.40;5.30;;;;;;;4.78;99.98;97962.30;218797;1254;139902;-65
2023/12/24 18:18:10;;;;;;;7.50;5.00;;;;;;;4.89;100.00;97952.80;219407;1256;139872;-65
2023/12/24 18:23:16;;;;;;;8.30;7.40;;;;;;;4.99;100.00;97954.00;220672;1253;139781;-65
2023/12/24 18:28:21;;;;;;;7.30;5.70;;;;;;;5.09;100.00;97941.53;218970;1253;139545;-64
2023/12/24 18:33:26;;;;;;;6.60;5.10;;;;;;;5.18;100.00;97932.36;219095;1256;140091;-65
2023/12/24 18:38:32;;;;;;;6.80;5.30;;;;;;;5.27;100.00;97921.48;219283;1253;141421;-66
2023/12/24 18:43:40;;;;;;;10.30;6.00;;;;;;;5.35;100.00;97906.36;218488;1254;140430;-67
2023/12/24 18:48:46;;;;;;;9.50;5.60;;;;;;;5.43;100.00;97901.82;218534;1253;140263;-67
2023/12/24 18:53:51;;;;;;;5.60;4.30;;;;;;;5.51;100.00;97896.98;218880;1256;140681;-66
2023/12/24 18:58:56;;;;;;;7.40;4.70;;;;;;;5.57;100.00;97891.02;218423;1254;140688;-66
2023/12/24 19:04:00;;;;;;;8.30;5.60;;;;;;;5.62;100.00;97876.02;219698;1254;140017;-67
2023/12/24 19:09:06;;;;;;;9.40;5.60;;;;;;;5.66;100.00;97867.20;218424;1254;209622;-67
2023/12/24 19:14:11;;;;;;;5.80;4.90;;;;;;;5.72;100.00;97878.41;218149;1253;140019;-68
2023/12/24 19:19:17;;;;;;;8.30;6.20;;;;;;;5.77;100.00;97880.91;218071;1253;139813;-65
2023/12/24 19:24:26;;;;;;;7.20;5.50;;;;;;;5.82;100.00;97879.66;219573;1254;140284;-67
2023/12/24 19:29:34;;;;;;;6.60;5.20;;;;;;;5.86;100.00;97885.84;217798;1256;247636;-67
2023/12/24 19:34:41;;;;;;;9.00;5.00;;;;;;;5.90;100.00;97882.64;219036;1254;141755;-66
2023/12/24 19:39:56;;;;;;;7.00;4.60;;;;;;;5.93;100.00;97870.88;217983;1256;139893;-66
2023/12/24 19:45:06;;;;;;;6.60;3.90;;;;;;;5.95;100.00;97858.98;218229;1258;139640;-67
2023/12/24 19:50:13;;;;;;;6.20;4.80;;;;;;;5.97;100.00;97848.39;219267;1256;140447;-67
2023/12/24 19:55:18;;;;;;;8.50;5.30;;;;;;;5.99;100.00;97835.66;218612;1254;139944;-68
2023/12/24 20:00:24;;;;;;;6.00;4.40;;;;;;;6.01;100.00;97831.44;219849;1254;140848;-67
2023/12/24 20:05:32;;;;;;;3.90;3.60;;;;;;;6.05;100.00;97816.31;218722;1255;139477;-67
2023/12/24 20:11:03;;;;;;;4.90;3.10;;;;;;;6.07;100.00;97808.23;219208;1254;141018;-67
2023/12/24 20:16:09;;;;;;;4.70;3.50;;;;;;;6.13;100.00;97791.05;219368;1254;139812;-69
2023/12/24 20:21:15;;;;;;;5.40;3.60;;;;;;;6.20;100.00;97787.98;218187;1254;140466;-66
2023/12/24 20:26:21;;;;;;;3.50;3.20;;;;;;;6.25;100.00;97784.21;219334;1254;139870;-68
2023/12/24 20:31:25;;;;;;;3.40;3.00;;;;;;;6.29;100.00;97789.60;218277;1253;140176;-68
2023/12/24 20:36:30;;;;;;;4.10;3.70;;;;;;;6.35;100.00;97772.98;217901;1256;140198;-67
2023/12/24 20:41:44;;;;;;;5.50;3.10;;;;;;;6.39;100.00;97772.74;219334;1253;141332;-67
2023/12/24 20:46:48;;;;;;;3.00;2.80;;;;;;;6.44;100.00;97762.58;218475;1256;139914;-68
2023/12/24 20:51:53;;;;;;;3.60;2.90;;;;;;;6.48;100.00;97759.95;218692;1254;140426;-67
2023/12/24 20:56:58;;;;;;;3.80;2.80;;;;;;;6.52;100.00;97761.09;218893;1254;140064;-67
2023/12/24 21:02:03;;;;;;;3.70;2.40;;;;;;;6.56;100.00;97767.15;217982;1254;139803;-67
2023/12/24 21:07:07;;;;;;;4.20;2.50;;;;;;;6.59;100.00;97767.91;219056;1254;141748;-67
2023/12/24 21:12:27;;;;;;;11.80;10.50;;;;;;;6.62;100.00;97759.41;218431;1255;140913;-67
2023/12/24 21:17:31;;;;;;;5.80;5.30;;;;;;;6.64;100.00;97742.42;218065;1254;141376;-66
2023/12/24 21:22:37;;;;;;;13.40;11.40;;;;;;;6.67;100.00;97745.35;218090;1256;140910;-66
2023/12/24 21:27:41;;;;;;;5.50;4.30;;;;;;;6.68;100.00;97734.40;218623;1256;140628;-66
2023/12/24 21:32:45;;;;;;;4.70;3.80;;;;;;;6.69;100.00;97726.67;217980;1254;139724;-67
2023/12/24 21:37:51;;;;;;;4.80;2.60;;;;;;;6.70;100.00;97718.20;218764;1256;139741;-67
2023/12/24 21:42:55;;;;;;;3.20;2.90;;;;;;;6.71;100.00;97702.85;218325;1253;140262;-69
2023/12/24 21:48:00;;;;;;;3.80;2.70;;;;;;;6.72;100.00;97696.08;218401;1256;141441;-70
2023/12/24 21:53:11;;;;;;;11.50;3.60;;;;;;;6.73;100.00;97694.85;219074;1254;139858;-68
2023/12/24 21:58:25;;;;;;;2.00;1.60;;;;;;;6.75;100.00;97697.65;218863;1254;139891;-68
2023/12/24 22:03:31;;;;;;;1.90;1.60;;;;;;;6.79;100.00;97691.05;220028;1253;140724;-68
2023/12/24 22:08:37;;;;;;;2.50;2.30;;;;;;;6.82;100.00;97691.55;218660;1254;141537;-67
2023/12/24 22:13:41;;;;;;;1.60;1.20;;;;;;;6.89;100.00;97695.54;218547;1254;140404;-68
2023/12/24 22:18:45;;;;;;;1.60;1.30;;;;;;;6.92;100.00;97687.34;218883;1254;140216;-66
2023/12/24 22:23:50;;;;;;;2.80;1.60;;;;;;;6.95;100.00;97678.98;220334;1253;140471;-67
2023/12/24 22:28:54;;;;;;;4.70;2.00;;;;;;;6.98;100.00;97674.75;220657;1254;140728;-67
2023/12/24 22:33:58;;;;;;;1.30;1.10;;;;;;;7.02;100.00;97685.77;219593;1256;140521;-68
2023/12/24 22:39:04;;;;;;;1.70;1.50;;;;;;;7.06;100.00;97680.95;219113;1254;141275;-65
2023/12/24 22:44:08;;;;;;;1.60;1.40;;;;;;;7.10;100.00;97674.61;218648;1253;139655;-67
2023/12/24 22:49:13;;;;;;;1.80;1.20;;;;;;;7.14;100.00;97664.77;219706;1253;140419;-67
2023/12/24 22:54:20;;;;;;;2.10;1.60;;;;;;;7.17;100.00;97665.40;218979;1254;140039;-70
2023/12/24 22:59:26;;;;;;;1.50;1.20;;;;;;;7.20;100.00;97667.73;218489;1256;139874;-67
2023/12/24 23:04:30;;;;;;;2.10;1.40;;;;;;;7.24;100.00;97662.34;218970;1256;139968;-69
2023/12/24 23:09:34;;;;;;;2.50;2.30;;;;;;;7.27;100.00;97671.14;219184;1256;141279;-70
2023/12/24 23:14:40;;;;;;;2.50;1.80;;;;;;;7.32;100.00;97669.51;218758;1254;140903;-70
2023/12/24 23:19:45;;;;;;;2.70;2.10;;;;;;;7.37;100.00;97667.53;218743;1256;140571;-69
2023/12/24 23:24:50;;;;;;;2.80;2.10;;;;;;;7.41;100.00;97658.85;218073;1256;141886;-69
2023/12/24 23:29:54;;;;;;;2.00;1.60;;;;;;;7.47;100.00;97650.89;219634;1257;141066;-69
2023/12/24 23:34:59;;;;;;;1.80;1.70;;;;;;;7.52;100.00;97654.13;217721;1255;140878;-68